Time,TemperatureF,DewpointF,PressureIn,WindDirection,WindDirectionDegrees,WindSpeedMPH,WindSpeedGustMPH,Humidity,HourlyPrecipIn,Conditions,Clouds,dailyrainin,SolarRadiationWatts/m^2,SoftwareType,DateUTC
2013-04-15 00:02:00,44.0,44.0,-100.00,West,259,16.0,30.0,99,0.00,,,0.00,0.000000,,2013-04-15 07:02:00,
2013-04-15 00:43:00,44.0,44.0,-100.00,West,259,16.0,30.0,99,0.00,,,0.00,0.000000,,2013-04-15 07:43:00,
2013-04-15 00:53:00,44.0,44.0,-100.00,West,259,16.0,30.0,99,0.00,,,0.00,0.000000,,2013-04-15 07:53:00,
2013-04-15 01:02:00,44.0,44.0,-100.00,WSW,254,16.0,30.0,100,0.00,,,0.00,0.000000,,2013-04-15 08:02:00,
2013-04-15 01:34:00,44.0,44.0,-100.00,WSW,254,16.0,30.0,100,0.00,,,0.00,0.000000,,2013-04-15 08:34:00,
2013-04-15 01:43:00,44.0,44.0,-100.00,WSW,254,16.0,30.0,100,0.00,,,0.00,0.000000,,2013-04-15 08:43:00,
2013-04-15 01:52:00,44.0,44.0,-100.00,WSW,254,16.0,30.0,100,0.00,,,0.00,0.000000,,2013-04-15 08:52:00,
2013-04-15 02:02:00,43.0,43.0,-100.00,West,259,16.0,33.0,100,0.00,,,0.00,0.000000,,2013-04-15 09:02:00,
2013-04-15 02:23:00,43.0,43.0,-100.00,West,259,16.0,33.0,100,0.00,,,0.00,0.000000,,2013-04-15 09:23:00,
2013-04-15 02:33:00,43.0,43.0,-100.00,West,259,16.0,33.0,100,0.00,,,0.00,0.000000,,2013-04-15 09:33:00,
2013-04-15 02:43:00,43.0,43.0,-100.00,West,259,16.0,33.0,100,0.00,,,0.00,0.000000,,2013-04-15 09:43:00,
2013-04-15 02:53:00,43.0,43.0,-100.00,West,259,16.0,33.0,100,0.00,,,0.00,0.000000,,2013-04-15 09:53:00,
2013-04-15 03:02:00,42.0,42.0,-100.00,West,268,15.0,30.0,100,0.00,,,0.00,0.000000,,2013-04-15 10:02:00,
2013-04-15 03:33:00,42.0,42.0,-100.00,West,268,15.0,30.0,100,0.00,,,0.00,0.000000,,2013-04-15 10:33:00,
2013-04-15 03:42:00,42.0,42.0,-100.00,West,268,15.0,30.0,100,0.00,,,0.00,0.000000,,2013-04-15 10:42:00,
2013-04-15 03:52:00,42.0,42.0,-100.00,West,268,15.0,30.0,100,0.00,,,0.00,0.000000,,2013-04-15 10:52:00,
2013-04-15 04:02:00,41.0,41.0,-100.00,West,270,15.0,29.0,100,0.00,,,0.00,0.000000,,2013-04-15 11:02:00,
2013-04-15 04:23:00,41.0,41.0,-100.00,West,270,15.0,29.0,100,0.00,,,0.00,0.000000,,2013-04-15 11:23:00,
2013-04-15 04:33:00,41.0,41.0,-100.00,West,270,15.0,29.0,100,0.00,,,0.00,0.000000,,2013-04-15 11:33:00,
2013-04-15 04:43:00,41.0,41.0,-100.00,West,270,15.0,29.0,100,0.00,,,0.00,0.000000,,2013-04-15 11:43:00,
2013-04-15 04:53:00,41.0,41.0,-100.00,West,270,15.0,29.0,100,0.00,,,0.00,0.000000,,2013-04-15 11:53:00,
2013-04-15 05:02:00,40.0,40.0,-100.00,West,262,8.0,27.0,100,0.00,,,0.00,0.000000,,2013-04-15 12:02:00,
2013-04-15 05:34:00,40.0,40.0,-100.00,West,262,8.0,27.0,100,0.00,,,0.00,0.000000,,2013-04-15 12:34:00,
2013-04-15 05:43:00,40.0,40.0,-100.00,West,262,8.0,27.0,100,0.00,,,0.00,0.000000,,2013-04-15 12:43:00,
2013-04-15 05:53:00,40.0,40.0,-100.00,West,262,8.0,27.0,100,0.00,,,0.00,0.000000,,2013-04-15 12:53:00,
2013-04-15 06:02:00,39.0,39.0,-100.00,West,274,12.0,20.0,100,0.00,,,0.00,0.000000,,2013-04-15 13:02:00,
2013-04-15 06:34:00,39.0,39.0,-100.00,West,274,12.0,20.0,100,0.00,,,0.00,0.000000,,2013-04-15 13:34:00,
2013-04-15 06:43:00,39.0,39.0,-100.00,West,274,12.0,20.0,100,0.00,,,0.00,0.000000,,2013-04-15 13:43:00,
2013-04-15 06:53:00,39.0,39.0,-100.00,West,274,12.0,20.0,100,0.00,,,0.00,0.000000,,2013-04-15 13:53:00,
2013-04-15 07:02:00,39.0,38.0,-100.00,West,275,8.0,18.0,98,0.00,,,0.00,15.000000,,2013-04-15 14:02:00,
2013-04-15 07:23:00,39.0,38.0,-100.00,West,275,8.0,18.0,98,0.00,,,0.00,15.000000,,2013-04-15 14:23:00,
2013-04-15 07:34:00,39.0,38.0,-100.00,West,275,8.0,18.0,98,0.00,,,0.00,15.000000,,2013-04-15 14:34:00,
2013-04-15 07:44:00,39.0,38.0,-100.00,West,275,8.0,18.0,98,0.00,,,0.00,15.000000,,2013-04-15 14:44:00,
2013-04-15 07:54:00,39.0,38.0,-100.00,West,275,8.0,18.0,98,0.00,,,0.00,15.000000,,2013-04-15 14:54:00,
2013-04-15 08:02:00,40.0,40.0,-100.00,West,278,8.0,16.0,99,0.00,,,0.00,90.000000,,2013-04-15 15:02:00,
2013-04-15 08:37:00,40.0,40.0,-100.00,West,278,8.0,16.0,99,0.00,,,0.00,90.000000,,2013-04-15 15:37:00,
2013-04-15 08:44:00,40.0,40.0,-100.00,West,278,8.0,16.0,99,0.00,,,0.00,90.000000,,2013-04-15 15:44:00,
2013-04-15 08:54:00,40.0,40.0,-100.00,West,278,8.0,16.0,99,0.00,,,0.00,90.000000,,2013-04-15 15:54:00,
2013-04-15 09:02:00,43.0,41.0,-100.00,West,264,8.0,15.0,92,0.00,,,0.00,333.000000,,2013-04-15 16:02:00,
2013-04-15 09:25:00,43.0,41.0,-100.00,West,264,8.0,15.0,92,0.00,,,0.00,333.000000,,2013-04-15 16:25:00,
2013-04-15 09:34:00,43.0,41.0,-100.00,West,264,8.0,15.0,92,0.00,,,0.00,333.000000,,2013-04-15 16:34:00,
2013-04-15 09:44:00,43.0,41.0,-100.00,West,264,8.0,15.0,92,0.00,,,0.00,333.000000,,2013-04-15 16:44:00,
2013-04-15 09:53:00,43.0,41.0,-100.00,West,264,8.0,15.0,92,0.00,,,0.00,333.000000,,2013-04-15 16:53:00,
2013-04-15 10:02:00,45.0,41.0,-100.00,West,262,10.0,17.0,85,0.00,,,0.00,558.000000,,2013-04-15 17:02:00,
2013-04-15 10:33:00,45.0,41.0,-100.00,West,262,10.0,17.0,85,0.00,,,0.00,558.000000,,2013-04-15 17:33:00,
2013-04-15 10:43:00,45.0,41.0,-100.00,West,262,10.0,17.0,85,0.00,,,0.00,558.000000,,2013-04-15 17:43:00,
2013-04-15 10:52:00,45.0,41.0,-100.00,West,262,10.0,17.0,85,0.00,,,0.00,558.000000,,2013-04-15 17:52:00,
2013-04-15 11:24:00,48.0,40.0,-100.00,West,263,10.0,19.0,75,0.00,,,0.00,730.000000,,2013-04-15 18:24:00,
2013-04-15 11:33:00,48.0,40.0,-100.00,West,263,10.0,19.0,75,0.00,,,0.00,730.000000,,2013-04-15 18:33:00,
2013-04-15 11:42:00,48.0,40.0,-100.00,West,263,10.0,19.0,75,0.00,,,0.00,730.000000,,2013-04-15 18:42:00,
2013-04-15 11:52:00,48.0,40.0,-100.00,West,263,10.0,19.0,75,0.00,,,0.00,730.000000,,2013-04-15 18:52:00,
2013-04-15 12:01:00,48.0,40.0,-100.00,West,263,10.0,19.0,75,0.00,,,0.00,730.000000,,2013-04-15 19:01:00,
2013-04-15 12:02:00,51.0,40.0,-100.00,West,261,11.0,20.0,65,0.00,,,0.00,902.000000,,2013-04-15 19:02:00,
2013-04-15 12:22:00,51.0,40.0,-100.00,West,261,11.0,20.0,65,0.00,,,0.00,902.000000,,2013-04-15 19:22:00,
2013-04-15 12:39:00,51.0,40.0,-100.00,West,261,11.0,20.0,65,0.00,,,0.00,902.000000,,2013-04-15 19:39:00,
2013-04-15 12:57:00,51.0,40.0,-100.00,West,261,11.0,20.0,65,0.00,,,0.00,902.000000,,2013-04-15 19:57:00,
2013-04-15 13:02:00,52.0,39.0,-100.00,West,262,10.0,19.0,60,0.00,,,0.00,774.000000,,2013-04-15 20:02:00,
2013-04-15 13:32:00,52.0,39.0,-100.00,West,262,10.0,19.0,60,0.00,,,0.00,774.000000,,2013-04-15 20:32:00,
2013-04-15 13:42:00,52.0,39.0,-100.00,West,262,10.0,19.0,60,0.00,,,0.00,774.000000,,2013-04-15 20:42:00,
2013-04-15 13:52:00,52.0,39.0,-100.00,West,262,10.0,19.0,60,0.00,,,0.00,774.000000,,2013-04-15 20:52:00,
2013-04-15 14:02:00,54.0,37.0,-100.00,West,261,11.0,23.0,52,0.00,,,0.00,944.000000,,2013-04-15 21:02:00,
2013-04-15 14:33:00,54.0,37.0,-100.00,West,261,11.0,23.0,52,0.00,,,0.00,944.000000,,2013-04-15 21:33:00,
2013-04-15 14:43:00,54.0,37.0,-100.00,West,261,11.0,23.0,52,0.00,,,0.00,944.000000,,2013-04-15 21:43:00,
2013-04-15 14:53:00,54.0,37.0,-100.00,West,261,11.0,23.0,52,0.00,,,0.00,944.000000,,2013-04-15 21:53:00,
2013-04-15 15:02:00,52.0,34.0,-100.00,West,259,13.0,29.0,51,0.00,,,0.00,836.000000,,2013-04-15 22:02:00,
2013-04-15 15:33:00,52.0,34.0,-100.00,West,259,13.0,29.0,51,0.00,,,0.00,836.000000,,2013-04-15 22:33:00,
2013-04-15 15:42:00,52.0,34.0,-100.00,West,259,13.0,29.0,51,0.00,,,0.00,836.000000,,2013-04-15 22:42:00,
2013-04-15 15:52:00,52.0,34.0,-100.00,West,259,13.0,29.0,51,0.00,,,0.00,836.000000,,2013-04-15 22:52:00,
2013-04-15 16:02:00,53.0,33.0,-100.00,West,265,13.0,27.0,46,0.00,,,0.00,724.000000,,2013-04-15 23:02:00,
2013-04-15 16:32:00,53.0,33.0,-100.00,West,265,13.0,27.0,46,0.00,,,0.00,724.000000,,2013-04-15 23:32:00,
2013-04-15 16:42:00,53.0,33.0,-100.00,West,265,13.0,27.0,46,0.00,,,0.00,724.000000,,2013-04-15 23:42:00,
2013-04-15 16:52:00,53.0,33.0,-100.00,West,265,13.0,27.0,46,0.00,,,0.00,724.000000,,2013-04-15 23:52:00,
2013-04-15 17:22:00,51.0,32.0,-100.00,West,268,14.0,31.0,48,0.00,,,0.00,534.000000,,2013-04-16 00:22:00,
2013-04-15 17:32:00,51.0,32.0,-100.00,West,268,14.0,31.0,48,0.00,,,0.00,534.000000,,2013-04-16 00:32:00,
2013-04-15 17:42:00,51.0,32.0,-100.00,West,268,14.0,31.0,48,0.00,,,0.00,534.000000,,2013-04-16 00:42:00,
2013-04-15 17:52:00,51.0,32.0,-100.00,West,268,14.0,31.0,48,0.00,,,0.00,534.000000,,2013-04-16 00:52:00,
2013-04-15 18:01:00,51.0,32.0,-100.00,West,268,14.0,31.0,48,0.00,,,0.00,534.000000,,2013-04-16 01:01:00,
2013-04-15 18:02:00,49.0,31.0,-100.00,West,269,16.0,33.0,50,0.00,,,0.00,434.000000,,2013-04-16 01:02:00,
2013-04-15 18:22:00,49.0,31.0,-100.00,West,269,16.0,33.0,50,0.00,,,0.00,434.000000,,2013-04-16 01:22:00,
2013-04-15 18:32:00,49.0,31.0,-100.00,West,269,16.0,33.0,50,0.00,,,0.00,434.000000,,2013-04-16 01:32:00,
2013-04-15 18:42:00,49.0,31.0,-100.00,West,269,16.0,33.0,50,0.00,,,0.00,434.000000,,2013-04-16 01:42:00,
2013-04-15 18:52:00,49.0,31.0,-100.00,West,269,16.0,33.0,50,0.00,,,0.00,434.000000,,2013-04-16 01:52:00,
2013-04-15 19:02:00,46.0,32.0,-100.00,West,263,13.0,26.0,57,0.00,,,0.00,218.000000,,2013-04-16 02:02:00,
2013-04-15 19:32:00,46.0,32.0,-100.00,West,263,13.0,26.0,57,0.00,,,0.00,218.000000,,2013-04-16 02:32:00,
2013-04-15 19:42:00,46.0,32.0,-100.00,West,263,13.0,26.0,57,0.00,,,0.00,218.000000,,2013-04-16 02:42:00,
2013-04-15 19:52:00,46.0,32.0,-100.00,West,263,13.0,26.0,57,0.00,,,0.00,218.000000,,2013-04-16 02:52:00,
2013-04-15 20:02:00,42.0,31.0,-100.00,West,271,13.0,25.0,65,0.00,,,0.00,37.000000,,2013-04-16 03:02:00,
2013-04-15 20:33:00,42.0,31.0,-100.00,West,271,13.0,25.0,65,0.00,,,0.00,37.000000,,2013-04-16 03:33:00,
2013-04-15 20:43:00,42.0,31.0,-100.00,West,271,13.0,25.0,65,0.00,,,0.00,37.000000,,2013-04-16 03:43:00,
2013-04-15 20:52:00,42.0,31.0,-100.00,West,271,13.0,25.0,65,0.00,,,0.00,37.000000,,2013-04-16 03:52:00,
2013-04-15 21:02:00,42.0,30.0,-100.00,West,270,10.0,21.0,62,0.00,,,0.00,0.000000,,2013-04-16 04:02:00,
2013-04-15 21:23:00,42.0,30.0,-100.00,West,270,10.0,21.0,62,0.00,,,0.00,0.000000,,2013-04-16 04:23:00,
2013-04-15 21:33:00,42.0,30.0,-100.00,West,270,10.0,21.0,62,0.00,,,0.00,0.000000,,2013-04-16 04:33:00,
2013-04-15 21:42:00,42.0,30.0,-100.00,West,270,10.0,21.0,62,0.00,,,0.00,0.000000,,2013-04-16 04:42:00,
2013-04-15 21:53:00,42.0,30.0,-100.00,West,270,10.0,21.0,62,0.00,,,0.00,0.000000,,2013-04-16 04:53:00,
2013-04-15 22:02:00,40.0,32.0,-100.00,West,276,8.0,15.0,74,0.00,,,0.00,0.000000,,2013-04-16 05:02:00,
2013-04-15 22:22:00,40.0,32.0,-100.00,West,276,8.0,15.0,74,0.00,,,0.00,0.000000,,2013-04-16 05:22:00,
2013-04-15 22:32:00,40.0,32.0,-100.00,West,276,8.0,15.0,74,0.00,,,0.00,0.000000,,2013-04-16 05:32:00,
2013-04-15 22:42:00,40.0,32.0,-100.00,West,276,8.0,15.0,74,0.00,,,0.00,0.000000,,2013-04-16 05:42:00,
2013-04-15 22:52:00,40.0,32.0,-100.00,West,276,8.0,15.0,74,0.00,,,0.00,0.000000,,2013-04-16 05:52:00,
2013-04-15 23:02:00,42.0,33.0,-100.00,WNW,285,5.0,12.0,69,0.00,,,0.00,0.000000,,2013-04-16 06:02:00,
2013-04-15 23:22:00,42.0,33.0,-100.00,WNW,285,5.0,12.0,69,0.00,,,0.00,0.000000,,2013-04-16 06:22:00,
2013-04-15 23:32:00,42.0,33.0,-100.00,WNW,285,5.0,12.0,69,0.00,,,0.00,0.000000,,2013-04-16 06:32:00,
2013-04-15 23:42:00,42.0,33.0,-100.00,WNW,285,5.0,12.0,69,0.00,,,0.00,0.000000,,2013-04-16 06:42:00,
2013-04-15 23:52:00,42.0,33.0,-100.00,WNW,285,5.0,12.0,69,0.00,,,0.00,0.000000,,2013-04-16 06:52:00,